Time;durP1;ratioP1;P1;durP2;ratioP2;P2;SDS_P1;SDS_P2;PMS_P1;PMS_P2;Temp;Humidity;BMP_temperature;BMP_pressure;BME280_temperature;BME280_humidity;BME280_pressure;Samples;Min_cycle;Max_cycle;Signal;HPM_P1;HPM_P2
2022/04/04 00:00:08;;;;;;;3.72;2.20;;;10.00;44.20;;;;;;5036251;28;20040;-80
2022/04/04 00:02:33;;;;;;;2.95;1.30;;;10.00;44.30;;;;;;5055744;28;20036;-78
2022/04/04 00:05:01;;;;;;;3.72;1.80;;;10.00;44.30;;;;;;5043653;28;20029;-78
2022/04/04 00:07:27;;;;;;;1.95;1.40;;;10.00;44.40;;;;;;5050490;28;20364;-79
2022/04/04 00:09:53;;;;;;;3.75;1.60;;;10.00;44.50;;;;;;5044435;28;20032;-81
2022/04/04 00:12:20;;;;;;;3.05;1.73;;;10.00;44.50;;;;;;5049036;28;20040;-79
2022/04/04 00:14:47;;;;;;;2.40;1.20;;;10.00;44.60;;;;;;5046504;28;20119;-78
2022/04/04 00:17:13;;;;;;;3.33;1.50;;;9.90;44.50;;;;;;5045580;28;20037;-78
2022/04/04 00:19:39;;;;;;;3.60;2.33;;;9.90;44.50;;;;;;5030748;28;20028;-78
2022/04/04 00:22:06;;;;;;;3.38;1.02;;;9.90;44.60;;;;;;5048042;28;20120;-79
2022/04/04 00:24:32;;;;;;;5.60;2.13;;;9.90;44.60;;;;;;5046512;28;20060;-79
2022/04/04 00:26:58;;;;;;;3.67;1.20;;;10.00;44.90;;;;;;5040829;28;20028;-79
2022/04/04 00:29:25;;;;;;;2.97;0.98;;;9.90;44.70;;;;;;5047207;28;20100;-79
2022/04/04 00:31:51;;;;;;;2.58;0.93;;;10.00;45.00;;;;;;5045093;28;20420;-79
2022/04/04 00:34:17;;;;;;;3.58;1.00;;;10.00;45.60;;;;;;5013847;28;20025;-81
2022/04/04 00:36:43;;;;;;;2.35;1.00;;;10.00;45.10;;;;;;5044854;28;20045;-80
2022/04/04 00:39:11;;;;;;;5.28;1.00;;;9.90;45.00;;;;;;5046610;28;20060;-80
2022/04/04 00:41:37;;;;;;;2.15;1.33;;;10.00;45.30;;;;;;5043364;28;20029;-79
2022/04/04 00:44:04;;;;;;;5.45;1.10;;;10.00;45.30;;;;;;5046980;28;20054;-81
2022/04/04 00:46:29;;;;;;;5.22;1.13;;;10.00;45.40;;;;;;5042617;28;20036;-80
2022/04/04 00:48:56;;;;;;;1.88;1.13;;;10.00;45.40;;;;;;5045357;28;20517;-80
2022/04/04 00:51:21;;;;;;;3.65;0.90;;;10.00;45.40;;;;;;5046585;28;20163;-80
2022/04/04 00:53:50;;;;;;;3.00;0.95;;;10.00;45.40;;;;;;5041244;28;20192;-79
2022/04/04 00:56:16;;;;;;;0.90;0.70;;;10.00;45.50;;;;;;5049520;28;20091;-79
2022/04/04 00:58:42;;;;;;;3.17;1.00;;;10.00;45.50;;;;;;5040544;28;20033;-80
2022/04/04 01:01:08;;;;;;;3.20;1.08;;;10.00;45.60;;;;;;5044458;28;20465;-80
2022/04/04 01:03:34;;;;;;;5.25;1.35;;;10.00;45.60;;;;;;5036768;28;20028;-80
2022/04/04 01:06:00;;;;;;;2.47;1.10;;;10.00;45.60;;;;;;5040368;28;20025;-80
2022/04/04 01:08:26;;;;;;;1.90;0.75;;;10.00;45.60;;;;;;5054828;28;20021;-80
2022/04/04 01:10:52;;;;;;;0.98;0.60;;;10.00;45.70;;;;;;5045279;28;20048;-80
2022/04/04 01:13:18;;;;;;;2.70;1.10;;;10.00;45.70;;;;;;5044547;28;20033;-80
2022/04/04 01:15:44;;;;;;;3.97;1.15;;;10.10;45.90;;;;;;5046520;28;20509;-81
2022/04/04 01:18:10;;;;;;;7.10;1.13;;;10.10;46.00;;;;;;5048796;28;20021;-80
2022/04/04 01:20:37;;;;;;;3.85;1.00;;;10.10;46.10;;;;;;5045716;28;20037;-80
2022/04/04 01:23:04;;;;;;;1.55;0.98;;;10.10;46.10;;;;;;5012243;28;20342;-80
2022/04/04 01:25:33;;;;;;;2.75;0.80;;;10.10;46.10;;;;;;5046327;28;20538;-79
2022/04/04 01:28:02;;;;;;;5.43;1.23;;;10.10;46.20;;;;;;5023732;28;20064;-79
2022/04/04 01:30:29;;;;;;;5.82;1.00;;;10.10;46.20;;;;;;5045940;28;20057;-79
2022/04/04 01:32:56;;;;;;;4.53;0.98;;;10.10;46.80;;;;;;5044868;28;20124;-79
2022/04/04 01:35:22;;;;;;;4.38;1.25;;;10.10;46.30;;;;;;5046161;28;20123;-79
2022/04/04 01:37:48;;;;;;;2.13;0.90;;;10.10;46.30;;;;;;5040554;28;20540;-77
2022/04/04 01:40:15;;;;;;;3.70;1.30;;;10.10;46.40;;;;;;5048122;28;20276;-79
2022/04/04 01:42:46;;;;;;;4.57;0.90;;;10.10;47.00;;;;;;5046299;28;20476;-79
2022/04/04 01:45:12;;;;;;;3.75;0.98;;;10.20;46.70;;;;;;5043278;28;20064;-79
2022/04/04 01:47:38;;;;;;;4.05;0.80;;;10.20;46.80;;;;;;5032381;28;20052;-79
2022/04/04 01:50:05;;;;;;;4.15;1.38;;;10.20;46.80;;;;;;5051609;28;20399;-79
2022/04/04 01:52:31;;;;;;;4.82;1.33;;;10.20;46.90;;;;;;5021143;28;20343;-79
2022/04/04 01:54:56;;;;;;;5.72;1.02;;;10.20;47.00;;;;;;5055088;28;20033;-77
2022/04/04 01:57:22;;;;;;;5.05;1.08;;;10.10;46.80;;;;;;5044203;28;20059;-77
2022/04/04 01:59:48;;;;;;;2.40;0.93;;;10.20;47.10;;;;;;5021632;28;20372;-78
2022/04/04 02:02:14;;;;;;;4.15;0.80;;;10.10;47.20;;;;;;5030054;28;20460;-80
2022/04/04 02:04:40;;;;;;;2.55;0.80;;;10.10;47.10;;;;;;5049219;28;20136;-80
2022/04/04 02:07:06;;;;;;;4.20;1.08;;;10.10;47.20;;;;;;5014652;28;20090;-80
2022/04/04 02:09:33;;;;;;;3.17;0.73;;;10.10;47.30;;;;;;5034237;28;20075;-80
2022/04/04 02:11:59;;;;;;;1.27;0.63;;;10.10;47.40;;;;;;5047356;28;20039;-79
2022/04/04 02:14:25;;;;;;;3.92;1.08;;;10.10;47.50;;;;;;5048176;28;20025;-79
2022/04/04 02:16:51;;;;;;;6.03;1.13;;;10.10;47.50;;;;;;5049684;28;20095;-79
2022/04/04 02:19:17;;;;;;;3.38;0.88;;;10.10;47.70;;;;;;5048295;28;20101;-78
2022/04/04 02:21:44;;;;;;;4.28;1.05;;;10.10;47.80;;;;;;5047652;28;20040;-78
2022/04/04 02:24:11;;;;;;;4.25;1.67;;;10.10;48.40;;;;;;5029504;28;20056;-80
2022/04/04 02:26:38;;;;;;;2.70;1.10;;;10.10;47.90;;;;;;5044673;28;20106;-78
2022/04/04 02:29:04;;;;;;;3.75;1.05;;;10.10;48.10;;;;;;5047847;28;20064;-80
2022/04/04 02:31:30;;;;;;;3.30;0.80;;;10.00;48.00;;;;;;5046918;28;20037;-80
2022/04/04 02:33:56;;;;;;;2.45;0.70;;;10.00;48.00;;;;;;5047196;28;20029;-80
2022/04/04 02:36:22;;;;;;;1.23;0.70;;;10.00;48.10;;;;;;5047834;28;20048;-80
2022/04/04 02:38:48;;;;;;;6.60;1.95;;;10.00;48.20;;;;;;5022647;28;20084;-79
2022/04/04 02:41:15;;;;;;;4.00;1.30;;;10.00;48.30;;;;;;5038202;28;20016;-77
2022/04/04 02:43:41;;;;;;;3.63;1.30;;;10.00;48.40;;;;;;5047538;28;20040;-79
2022/04/04 02:46:11;;;;;;;2.60;1.48;;;10.00;48.50;;;;;;5047389;28;20108;-79
2022/04/04 02:48:37;;;;;;;2.83;1.00;;;10.00;48.50;;;;;;5028182;28;20554;-79
2022/04/04 02:51:04;;;;;;;2.40;0.93;;;9.90;48.40;;;;;;5047373;28;20066;-78
2022/04/04 02:53:30;;;;;;;4.53;1.40;;;10.00;48.70;;;;;;5010924;28;20037;-80
2022/04/04 02:58:40;;;;;;;4.80;1.95;;;9.90;48.70;;;;;;5042500;28;20516;-80
2022/04/04 03:01:06;;;;;;;1.55;0.82;;;9.90;48.70;;;;;;5045601;28;20416;-78
2022/04/04 03:03:32;;;;;;;3.17;1.13;;;9.90;48.80;;;;;;5045964;28;20021;-78
2022/04/04 03:05:58;;;;;;;2.63;1.38;;;9.90;48.90;;;;;;5046558;28;20033;-80
2022/04/04 03:08:24;;;;;;;3.10;1.23;;;9.90;49.00;;;;;;5046520;28;20032;-79
2022/04/04 03:10:49;;;;;;;2.67;1.30;;;9.80;48.90;;;;;;5040816;28;20515;-80
2022/04/04 03:13:15;;;;;;;3.17;1.95;;;9.80;49.00;;;;;;5039898;28;20098;-79
2022/04/04 03:15:41;;;;;;;3.08;1.13;;;9.80;49.00;;;;;;5046264;28;20518;-80
2022/04/04 03:18:07;;;;;;;2.92;1.40;;;9.80;49.20;;;;;;5045990;28;20385;-80
2022/04/04 03:20:34;;;;;;;4.25;1.45;;;9.80;49.20;;;;;;5023891;28;20136;-80
2022/04/04 03:23:00;;;;;;;2.03;1.20;;;9.70;49.10;;;;;;5017538;28;20051;-80
2022/04/04 03:25:27;;;;;;;3.67;1.20;;;9.70;49.20;;;;;;5046167;28;20029;-78
2022/04/04 03:27:53;;;;;;;4.28;1.83;;;9.80;49.50;;;;;;5045701;28;20056;-79
2022/04/04 03:30:29;;;;;;;4.40;2.00;;;9.70;49.30;;;;;;5034142;28;20076;-80
2022/04/04 03:32:59;;;;;;;4.60;1.30;;;9.70;49.50;;;;;;5013117;28;20029;-79
2022/04/04 03:35:27;;;;;;;5.30;1.13;;;9.80;49.70;;;;;;5045979;28;20067;-80
2022/04/04 03:37:55;;;;;;;3.22;1.27;;;9.70;49.60;;;;;;5046678;28;20045;-80
2022/04/04 03:40:23;;;;;;;3.33;2.10;;;9.70;49.70;;;;;;5041389;28;20052;-80
2022/04/04 03:42:53;;;;;;;3.13;1.20;;;9.70;49.80;;;;;;5045567;28;20041;-80
2022/04/04 03:45:20;;;;;;;4.70;1.40;;;9.70;49.90;;;;;;5022469;28;20087;-80
2022/04/04 03:47:47;;;;;;;1.33;1.13;;;9.70;49.90;;;;;;5045926;28;20213;-80
2022/04/04 03:50:15;;;;;;;3.88;1.15;;;9.70;50.00;;;;;;5045945;28;20033;-80
2022/04/04 03:52:42;;;;;;;5.35;1.20;;;9.70;50.10;;;;;;5047708;28;20033;-80
2022/04/04 03:55:11;;;;;;;2.47;1.50;;;9.70;50.30;;;;;;5046306;28;20222;-79
2022/04/04 03:57:38;;;;;;;4.40;1.20;;;9.70;50.20;;;;;;5037987;28;20048;-79
2022/04/04 04:00:05;;;;;;;2.95;1.17;;;9.70;50.90;;;;;;5012426;28;20032;-80
2022/04/04 04:02:34;;;;;;;2.67;1.60;;;9.70;50.50;;;;;;5046263;28;20491;-80
2022/04/04 04:05:01;;;;;;;2.83;1.42;;;9.70;50.60;;;;;;5046365;28;20538;-79
2022/04/04 04:07:27;;;;;;;5.63;1.23;;;9.70;50.60;;;;;;5045908;28;20126;-80
2022/04/04 04:09:54;;;;;;;2.20;1.38;;;9.70;50.70;;;;;;5044509;28;20478;-79
2022/04/04 04:12:20;;;;;;;3.53;1.40;;;9.70;50.90;;;;;;5045838;28;20033;-80
2022/04/04 04:14:47;;;;;;;6.60;1.48;;;9.70;50.90;;;;;;5025325;28;20345;-79
2022/04/04 04:17:15;;;;;;;3.47;1.75;;;9.70;51.00;;;;;;5046085;28;20509;-79
2022/04/04 04:22:26;;;;;;;5.28;1.60;;;9.70;51.20;;;;;;5045675;28;20370;-79
2022/04/04 04:24:52;;;;;;;3.83;1.60;;;9.70;51.20;;;;;;5046583;28;20044;-80
2022/04/04 04:27:18;;;;;;;7.13;1.40;;;9.70;51.30;;;;;;5027615;28;20127;-80
2022/04/04 04:29:44;;;;;;;6.72;1.90;;;9.70;51.40;;;;;;5046747;28;20162;-80
2022/04/04 04:32:09;;;;;;;5.53;1.67;;;9.70;51.40;;;;;;5045262;28;20044;-80
2022/04/04 04:34:35;;;;;;;4.45;1.52;;;9.80;51.80;;;;;;5047226;28;20127;-80
2022/04/04 04:37:02;;;;;;;4.68;1.80;;;9.80;51.80;;;;;;5041535;28;20036;-80
2022/04/04 04:39:27;;;;;;;4.35;1.40;;;9.80;51.90;;;;;;5048384;28;20037;-80
2022/04/04 04:41:55;;;;;;;4.50;1.42;;;9.80;52.00;;;;;;5029756;28;20029;-79
2022/04/04 04:44:21;;;;;;;5.32;1.50;;;9.80;52.60;;;;;;5051691;28;20484;-80
2022/04/04 04:46:48;;;;;;;2.75;1.50;;;9.80;52.10;;;;;;5046002;28;20065;-80
2022/04/04 04:49:16;;;;;;;6.97;1.52;;;9.80;52.20;;;;;;5043555;28;20076;-80
2022/04/04 04:51:42;;;;;;;3.88;1.45;;;9.80;52.30;;;;;;5048835;28;20374;-80
2022/04/04 04:54:08;;;;;;;3.92;1.20;;;9.80;52.30;;;;;;5049207;28;20033;-80
2022/04/04 04:56:35;;;;;;;6.13;1.50;;;9.90;53.20;;;;;;5042207;28;20048;-81
2022/04/04 04:59:02;;;;;;;5.25;1.60;;;9.80;52.50;;;;;;5047124;28;20037;-82
2022/04/04 05:01:28;;;;;;;5.10;1.73;;;9.90;52.80;;;;;;5031086;28;20029;-81
2022/04/04 05:03:54;;;;;;;4.38;1.50;;;9.90;52.80;;;;;;5022047;28;20112;-79
2022/04/04 05:06:20;;;;;;;5.38;1.65;;;9.90;52.90;;;;;;5041299;28;20337;-78
2022/04/04 05:08:47;;;;;;;3.83;1.67;;;9.90;52.90;;;;;;5026083;28;20071;-79
2022/04/04 05:11:13;;;;;;;5.25;2.10;;;9.90;53.00;;;;;;5045185;28;20029;-79
2022/04/04 05:13:39;;;;;;;2.72;1.40;;;9.90;53.00;;;;;;5014939;28;20040;-79
2022/04/04 05:16:09;;;;;;;4.40;1.45;;;9.90;53.10;;;;;;5043374;28;20120;-79
2022/04/04 05:18:36;;;;;;;5.35;1.92;;;9.80;53.00;;;;;;5046384;28;20666;-79
2022/04/04 05:21:03;;;;;;;5.47;1.73;;;9.90;53.20;;;;;;5046159;28;20196;-79
2022/04/04 05:23:29;;;;;;;4.32;1.70;;;9.90;53.20;;;;;;5044573;28;20067;-79
2022/04/04 05:25:55;;;;;;;2.78;1.83;;;9.90;53.30;;;;;;5045384;28;20036;-79
2022/04/04 05:28:21;;;;;;;2.35;1.58;;;9.90;53.40;;;;;;5041292;28;20033;-79
2022/04/04 05:30:46;;;;;;;4.07;1.90;;;9.80;53.20;;;;;;5030807;28;20032;-80
2022/04/04 05:33:14;;;;;;;4.00;2.38;;;9.90;53.50;;;;;;5043244;28;20111;-80
2022/04/04 05:35:40;;;;;;;5.10;1.92;;;9.80;53.30;;;;;;5041919;28;20505;-80
2022/04/04 05:38:06;;;;;;;3.72;1.98;;;9.80;53.40;;;;;;5040835;28;20025;-77
2022/04/04 05:40:32;;;;;;;4.63;2.00;;;9.80;53.40;;;;;;5042599;28;20622;-75
2022/04/04 05:43:00;;;;;;;3.58;1.83;;;9.80;53.50;;;;;;5042666;28;20025;-76
2022/04/04 05:45:26;;;;;;;3.40;2.00;;;9.80;53.50;;;;;;5043096;28;20036;-76
2022/04/04 05:47:52;;;;;;;2.83;1.92;;;9.80;53.50;;;;;;5041129;28;20029;-77
2022/04/04 05:50:18;;;;;;;3.47;1.85;;;9.80;53.60;;;;;;5043077;28;20027;-77
2022/04/04 05:52:44;;;;;;;3.80;1.88;;;9.80;53.70;;;;;;5041014;28;20033;-78
2022/04/04 05:55:10;;;;;;;3.65;2.13;;;9.80;53.90;;;;;;5042384;28;20079;-77
2022/04/04 05:57:39;;;;;;;4.03;1.95;;;9.80;54.10;;;;;;5040400;28;20025;-76
2022/04/04 06:00:08;;;;;;;4.82;2.42;;;9.80;54.70;;;;;;5023999;28;20044;-76
2022/04/04 06:02:37;;;;;;;3.00;2.28;;;9.80;54.20;;;;;;5046041;28;20274;-77
2022/04/04 06:05:04;;;;;;;3.92;2.00;;;9.80;54.20;;;;;;5024097;28;20044;-75
2022/04/04 06:07:30;;;;;;;3.22;1.90;;;9.80;54.30;;;;;;5042831;28;20124;-76
2022/04/04 06:09:56;;;;;;;2.75;1.60;;;9.80;54.40;;;;;;5042375;28;20436;-77
2022/04/04 06:12:22;;;;;;;6.25;3.13;;;9.80;54.50;;;;;;5041134;28;20087;-77
2022/04/04 06:14:47;;;;;;;1.85;1.30;;;9.80;54.60;;;;;;5042759;28;20036;-76
2022/04/04 06:17:13;;;;;;;2.40;1.63;;;9.80;54.70;;;;;;5040061;28;20071;-76
2022/04/04 06:19:41;;;;;;;3.20;1.85;;;9.90;54.90;;;;;;5046123;28;20040;-78
2022/04/04 06:22:07;;;;;;;3.72;1.77;;;9.80;54.80;;;;;;5041946;28;20043;-77
2022/04/04 06:24:33;;;;;;;1.60;1.15;;;9.80;54.90;;;;;;5035990;28;20026;-77
2022/04/04 06:27:00;;;;;;;3.47;1.55;;;9.90;55.20;;;;;;5041534;28;20410;-77
2022/04/04 06:29:26;;;;;;;3.60;1.48;;;9.90;55.20;;;;;;5026045;28;20492;-76
2022/04/04 06:31:52;;;;;;;2.72;1.88;;;9.90;55.30;;;;;;5034491;28;20033;-75
2022/04/04 06:34:18;;;;;;;3.42;1.33;;;10.00;55.50;;;;;;5041546;28;20545;-76
2022/04/04 06:36:44;;;;;;;3.83;1.65;;;9.90;55.50;;;;;;5040476;28;20037;-75
2022/04/04 06:39:11;;;;;;;3.13;1.42;;;10.00;56.20;;;;;;5037128;28;20280;-76
2022/04/04 06:41:37;;;;;;;3.25;1.40;;;10.10;56.60;;;;;;5040417;28;20067;-76
2022/04/04 06:44:04;;;;;;;3.13;1.10;;;10.20;56.80;;;;;;5041652;28;20053;-75
2022/04/04 06:46:30;;;;;;;3.70;1.55;;;10.30;57.00;;;;;;5042958;28;20093;-76
2022/04/04 06:48:56;;;;;;;3.53;1.67;;;10.30;57.00;;;;;;5024446;28;20120;-76
2022/04/04 06:51:22;;;;;;;2.80;1.73;;;10.40;57.20;;;;;;5036994;28;20398;-76
2022/04/04 06:53:48;;;;;;;3.15;1.55;;;10.50;57.40;;;;;;5037340;28;20025;-77
2022/04/04 06:56:14;;;;;;;3.38;1.20;;;10.50;57.50;;;;;;5040507;28;20071;-76
2022/04/04 06:58:40;;;;;;;3.08;1.25;;;10.50;57.50;;;;;;5039066;28;20056;-77
2022/04/04 07:01:07;;;;;;;2.30;1.00;;;10.50;57.50;;;;;;5040107;28;20120;-76
2022/04/04 07:03:33;;;;;;;5.13;1.20;;;10.60;58.30;;;;;;5038989;28;20024;-76
2022/04/04 07:05:59;;;;;;;3.92;1.65;;;10.60;57.80;;;;;;5028447;28;20320;-77
2022/04/04 07:08:25;;;;;;;5.15;1.83;;;10.60;57.80;;;;;;5032682;28;20033;-75
2022/04/04 07:10:51;;;;;;;3.35;1.10;;;10.70;58.10;;;;;;5046500;28;20075;-74
2022/04/04 07:13:17;;;;;;;2.88;1.13;;;10.70;58.10;;;;;;5039522;28;20061;-73
2022/04/04 07:15:43;;;;;;;4.47;1.33;;;10.80;58.40;;;;;;5041823;28;20075;-73
2022/04/04 07:18:10;;;;;;;3.70;1.10;;;10.80;58.40;;;;;;5035274;28;20029;-73
2022/04/04 07:20:38;;;;;;;5.30;1.45;;;10.80;58.40;;;;;;5038702;28;20519;-73
2022/04/04 07:23:05;;;;;;;4.22;1.30;;;10.90;59.20;;;;;;5019352;28;20033;-74
2022/04/04 07:25:31;;;;;;;4.22;0.80;;;10.90;58.70;;;;;;5048813;28;20048;-73
2022/04/04 07:27:57;;;;;;;4.25;1.50;;;10.90;58.70;;;;;;5037789;28;20133;-73
2022/04/04 07:30:23;;;;;;;4.07;1.23;;;10.90;58.70;;;;;;5044676;28;20132;-74
2022/04/04 07:32:51;;;;;;;3.58;1.60;;;11.00;59.00;;;;;;5046019;28;20092;-73
2022/04/04 07:35:18;;;;;;;3.03;1.55;;;11.00;59.00;;;;;;5052152;28;20086;-73
2022/04/04 07:37:46;;;;;;;4.43;1.02;;;11.10;59.30;;;;;;5046197;28;20037;-73
2022/04/04 07:40:14;;;;;;;3.95;1.17;;;11.10;59.30;;;;;;5046036;28;20147;-72
2022/04/04 07:42:42;;;;;;;5.32;1.50;;;11.10;59.30;;;;;;5043414;28;20068;-73
2022/04/04 07:45:10;;;;;;;3.50;1.10;;;11.20;59.50;;;;;;5048184;28;20069;-74
2022/04/04 07:47:36;;;;;;;5.63;1.25;;;11.20;59.50;;;;;;5048901;28;20033;-75
2022/04/04 07:50:04;;;;;;;4.68;1.85;;;11.20;59.50;;;;;;5044600;28;20052;-75
2022/04/04 07:52:30;;;;;;;4.95;1.67;;;11.20;59.50;;;;;;5050828;28;20127;-76
2022/04/04 07:54:56;;;;;;;8.65;1.50;;;11.30;59.80;;;;;;5037735;28;20068;-76
2022/04/04 07:57:23;;;;;;;7.30;1.75;;;11.30;59.80;;;;;;5033600;28;20154;-78
2022/04/04 07:59:51;;;;;;;4.00;2.45;;;11.40;60.10;;;;;;5024460;28;20033;-77
2022/04/04 08:02:17;;;;;;;6.60;1.70;;;11.40;60.10;;;;;;5042185;28;20037;-77
2022/04/04 08:04:43;;;;;;;11.80;2.35;;;11.40;60.20;;;;;;5041862;28;20057;-78
2022/04/04 08:07:09;;;;;;;6.45;2.25;;;11.40;60.20;;;;;;5054018;28;20144;-78
2022/04/04 08:09:35;;;;;;;5.97;1.75;;;11.40;60.30;;;;;;5029808;28;20033;-76
2022/04/04 08:12:01;;;;;;;6.35;2.28;;;11.50;60.50;;;;;;5043542;28;20037;-74
2022/04/04 08:14:27;;;;;;;6.45;2.35;;;11.50;60.50;;;;;;5017161;28;20041;-76
2022/04/04 08:16:53;;;;;;;7.25;1.95;;;11.50;60.60;;;;;;5046569;28;20701;-75
2022/04/04 08:19:20;;;;;;;9.98;2.00;;;11.60;60.80;;;;;;5028723;28;20075;-76
2022/04/04 08:21:46;;;;;;;5.15;2.08;;;11.60;60.80;;;;;;5041568;28;20064;-77
2022/04/04 08:24:13;;;;;;;6.28;1.83;;;11.60;60.90;;;;;;5050666;28;20251;-76
2022/04/04 08:26:40;;;;;;;11.88;2.85;;;11.70;61.00;;;;;;5045410;28;20021;-75
2022/04/04 08:29:08;;;;;;;7.40;2.08;;;11.70;61.00;;;;;;5044383;28;20078;-75
2022/04/04 08:31:34;;;;;;;7.65;2.55;;;11.80;61.20;;;;;;5029721;28;20021;-76
2022/04/04 08:34:00;;;;;;;5.65;2.00;;;11.80;61.10;;;;;;5052662;28;20071;-74
2022/04/04 08:36:26;;;;;;;3.42;1.77;;;11.90;61.30;;;;;;5045711;28;20728;-75
2022/04/04 08:38:51;;;;;;;6.45;2.35;;;11.90;61.20;;;;;;5042458;28;20048;-76
2022/04/04 08:41:18;;;;;;;6.90;2.90;;;11.90;61.20;;;;;;5038592;28;20022;-76
2022/04/04 08:43:44;;;;;;;6.15;2.75;;;12.00;61.40;;;;;;5042984;28;20031;-77
2022/04/04 08:46:10;;;;;;;7.72;2.50;;;12.00;61.40;;;;;;5036837;28;20044;-77
2022/04/04 08:48:38;;;;;;;4.60;2.03;;;12.00;61.40;;;;;;5040251;28;20632;-75
2022/04/04 08:51:09;;;;;;;11.88;3.45;;;12.10;61.50;;;;;;5045318;28;20487;-76
2022/04/04 08:53:39;;;;;;;5.90;2.85;;;12.20;61.70;;;;;;5054908;28;20070;-77
2022/04/04 08:56:06;;;;;;;10.25;4.70;;;12.20;61.70;;;;;;5047625;28;20041;-77
2022/04/04 08:58:33;;;;;;;7.15;3.35;;;12.20;61.70;;;;;;5051474;28;20028;-78
2022/04/04 09:00:59;;;;;;;10.95;4.53;;;12.30;61.80;;;;;;5029887;28;20033;-77
2022/04/04 09:03:33;;;;;;;9.52;3.88;;;12.40;62.00;;;;;;5033669;28;20033;-78
2022/04/04 09:06:03;;;;;;;11.23;4.68;;;12.30;61.90;;;;;;5044620;28;20391;-76
2022/04/04 09:08:30;;;;;;;10.02;3.70;;;12.40;62.00;;;;;;5042418;28;20033;-79
2022/04/04 09:11:01;;;;;;;8.95;4.10;;;12.50;62.10;;;;;;5050524;28;20040;-78
2022/04/04 09:13:29;;;;;;;10.52;4.45;;;12.60;62.30;;;;;;5036649;28;20056;-77
2022/04/04 09:16:00;;;;;;;7.50;5.00;;;12.60;62.20;;;;;;5043936;28;20391;-78
2022/04/04 09:18:35;;;;;;;7.10;4.60;;;12.70;62.20;;;;;;5026989;28;20483;-77
2022/04/04 09:21:06;;;;;;;10.48;4.78;;;12.90;62.50;;;;;;5029544;28;20404;-77
2022/04/04 09:23:49;;;;;;;8.68;4.65;;;13.00;62.40;;;;;;5053761;28;20430;-76
2022/04/04 09:26:41;;;;;;;10.85;5.55;;;13.10;62.80;;;;;;5042396;28;20025;-78
2022/04/04 09:29:19;;;;;;;9.77;4.90;;;13.30;62.70;;;;;;5040687;28;20036;-78
2022/04/04 09:32:05;;;;;;;10.77;5.13;;;13.40;62.50;;;;;;5043646;28;20040;-79
2022/04/04 09:35:02;;;;;;;10.95;5.88;;;13.50;62.70;;;;;;5037782;28;20036;-80
2022/04/04 09:37:33;;;;;;;10.50;5.13;;;13.50;62.50;;;;;;5022887;28;20461;-79
2022/04/04 09:40:02;;;;;;;9.13;5.38;;;13.60;62.40;;;;;;5035869;28;20771;-78
2022/04/04 09:42:28;;;;;;;8.88;4.80;;;13.60;62.30;;;;;;5024192;28;20116;-79
2022/04/04 09:44:58;;;;;;;10.65;6.22;;;13.60;62.40;;;;;;5026463;28;20525;-78
2022/04/04 09:48:02;;;;;;;12.32;5.18;;;13.60;62.40;;;;;;5031539;28;20034;-79
2022/04/04 09:50:30;;;;;;;10.13;5.60;;;13.70;62.80;;;;;;5041507;28;20526;-80
2022/04/04 09:52:57;;;;;;;9.27;6.22;;;13.70;62.60;;;;;;5043303;28;20404;-79
2022/04/04 09:55:28;;;;;;;10.15;5.38;;;13.70;63.20;;;;;;5049656;28;20033;-79
2022/04/04 09:57:57;;;;;;;11.00;5.88;;;13.80;62.80;;;;;;5043510;28;20096;-80
2022/04/04 10:00:24;;;;;;;11.00;5.32;;;13.90;62.90;;;;;;5044485;28;20028;-78
2022/04/04 10:02:53;;;;;;;9.70;5.88;;;14.00;63.00;;;;;;5028241;28;20033;-76
2022/04/04 10:05:21;;;;;;;11.50;5.57;;;14.00;62.80;;;;;;5033415;28;20033;-77
2022/04/04 10:07:49;;;;;;;12.10;6.55;;;14.10;62.80;;;;;;5043264;28;20279;-76
2022/04/04 10:10:16;;;;;;;9.43;5.65;;;14.20;62.90;;;;;;5024797;28;20033;-76
2022/04/04 10:12:43;;;;;;;9.60;5.72;;;14.20;62.80;;;;;;5043040;28;20029;-77
2022/04/04 10:15:10;;;;;;;10.93;5.32;;;14.30;62.90;;;;;;5042853;28;20040;-77
2022/04/04 10:17:37;;;;;;;12.15;5.72;;;14.30;62.80;;;;;;5040947;28;20674;-74
2022/04/04 10:20:05;;;;;;;9.95;5.25;;;14.40;62.80;;;;;;5039711;28;20036;-77
2022/04/04 10:22:31;;;;;;;11.65;6.47;;;14.50;62.90;;;;;;5040631;28;20040;-76
2022/04/04 10:25:00;;;;;;;12.02;6.13;;;14.60;62.90;;;;;;5043480;28;20052;-76
2022/04/04 10:27:26;;;;;;;10.25;6.32;;;14.70;62.90;;;;;;5041887;28;20025;-77
2022/04/04 10:30:04;;;;;;;9.70;5.80;;;14.80;62.90;;;;;;5035066;28;20087;-78
2022/04/04 10:32:31;;;;;;;10.98;6.25;;;14.90;62.90;;;;;;5036925;28;20047;-74
2022/04/04 10:34:58;;;;;;;9.85;5.97;;;15.00;62.70;;;;;;5042484;28;20482;-76
2022/04/04 10:37:31;;;;;;;12.60;6.95;;;15.20;62.80;;;;;;5032701;28;20037;-76
2022/04/04 10:39:57;;;;;;;9.13;5.57;;;15.20;62.60;;;;;;5018374;28;20056;-76
2022/04/04 10:42:37;;;;;;;11.73;6.53;;;15.40;62.80;;;;;;5039540;28;20029;-76
2022/04/04 10:45:13;;;;;;;9.68;5.85;;;15.50;62.80;;;;;;5041656;28;20051;-77
2022/04/04 10:47:42;;;;;;;9.63;5.30;;;15.70;62.90;;;;;;5040200;28;20476;-78
2022/04/04 10:50:20;;;;;;;9.07;6.35;;;15.80;62.70;;;;;;5041078;28;20025;-76
2022/04/04 10:52:47;;;;;;;9.70;5.35;;;15.90;62.60;;;;;;5027049;28;20563;-83
2022/04/04 10:55:34;;;;;;;9.48;5.10;;;16.10;62.60;;;;;;5025115;28;20318;-78
2022/04/04 10:58:12;;;;;;;10.63;5.85;;;16.30;62.80;;;;;;5033032;28;20273;-77
2022/04/04 11:00:57;;;;;;;7.82;5.13;;;16.50;62.80;;;;;;5042960;28;20040;-77
2022/04/04 11:03:34;;;;;;;10.35;6.28;;;16.70;62.80;;;;;;5044454;28;20068;-77
2022/04/04 11:09:14;;;;;;;9.15;5.07;;;17.00;62.50;;;;;;5038152;28;20036;-74
2022/04/04 11:11:48;;;;;;;10.77;5.30;;;17.00;62.30;;;;;;5031489;28;20063;-74
2022/04/04 11:14:39;;;;;;;10.43;5.40;;;17.00;62.20;;;;;;5036180;28;20115;-73
2022/04/04 11:20:04;;;;;;;8.15;5.80;;;16.90;62.30;;;;;;5038534;28;20029;-76
2022/04/04 11:22:41;;;;;;;8.23;5.20;;;17.00;62.40;;;;;;5046885;28;20097;-77
2022/04/04 11:25:16;;;;;;;8.38;5.45;;;17.10;62.50;;;;;;5022083;28;20245;-75
2022/04/04 11:27:48;;;;;;;9.82;5.82;;;17.20;62.40;;;;;;5045854;28;20033;-76
2022/04/04 11:30:19;;;;;;;10.50;6.53;;;17.30;62.30;;;;;;5044106;28;20029;-76
2022/04/04 11:32:47;;;;;;;9.10;5.57;;;17.40;62.20;;;;;;5035146;28;20033;-76
2022/04/04 11:35:14;;;;;;;9.85;5.50;;;17.60;62.20;;;;;;5045971;28;20135;-76
2022/04/04 11:37:43;;;;;;;10.93;6.22;;;17.80;62.20;;;;;;5041329;28;20044;-77
2022/04/04 11:40:14;;;;;;;12.63;6.43;;;17.90;62.10;;;;;;5056548;28;20429;-77
2022/04/04 11:42:42;;;;;;;11.93;5.82;;;18.00;61.90;;;;;;5018075;28;20040;-78
2022/04/04 11:45:09;;;;;;;9.82;5.10;;;18.20;61.90;;;;;;5022085;28;20040;-77
2022/04/04 11:47:39;;;;;;;9.02;6.00;;;18.30;61.80;;;;;;5041926;28;20068;-75
2022/04/04 11:50:06;;;;;;;8.40;5.82;;;18.40;61.70;;;;;;5035495;28;20025;-76
2022/04/04 11:52:45;;;;;;;8.10;5.97;;;18.40;61.50;;;;;;5040601;28;20025;-76
2022/04/04 11:55:14;;;;;;;10.00;6.28;;;18.40;61.40;;;;;;5040299;28;20147;-76
2022/04/04 11:57:40;;;;;;;11.15;6.13;;;18.30;61.30;;;;;;5044913;28;20094;-76
2022/04/04 12:00:11;;;;;;;9.30;5.53;;;18.30;61.50;;;;;;5040519;28;20044;-76
2022/04/04 12:02:38;;;;;;;7.38;5.80;;;18.20;61.40;;;;;;5043331;28;20545;-74
2022/04/04 12:05:06;;;;;;;9.75;6.88;;;18.30;61.60;;;;;;5045442;28;20045;-73
2022/04/04 12:07:33;;;;;;;9.57;6.47;;;18.30;61.40;;;;;;5046223;28;20464;-74
2022/04/04 12:10:01;;;;;;;8.90;6.32;;;18.40;61.50;;;;;;5045290;28;20040;-75
2022/04/04 12:12:33;;;;;;;9.40;6.18;;;18.40;61.40;;;;;;5038556;28;20029;-77
2022/04/04 12:14:59;;;;;;;9.23;6.97;;;18.40;61.30;;;;;;5028532;28;20044;-79
2022/04/04 12:17:25;;;;;;;15.98;9.10;;;18.50;61.10;;;;;;5043243;28;20401;-83
2022/04/04 12:19:52;;;;;;;13.52;7.68;;;18.50;60.80;;;;;;5045830;28;20032;-80
2022/04/04 12:25:06;;;;;;;8.63;6.88;;;18.30;60.60;;;;;;5044024;28;20098;-80
2022/04/04 12:27:33;;;;;;;14.10;7.20;;;18.20;60.90;;;;;;5045054;28;20483;-81
2022/04/04 12:30:04;;;;;;;10.63;6.68;;;18.20;61.20;;;;;;5027671;28;20029;-81
2022/04/04 12:32:37;;;;;;;9.50;7.32;;;18.20;61.30;;;;;;5044783;28;20044;-80
2022/04/04 12:35:08;;;;;;;9.15;6.03;;;18.30;61.20;;;;;;5052494;28;20033;-80
2022/04/04 12:37:37;;;;;;;8.05;6.97;;;18.50;61.20;;;;;;5003502;28;20060;-79
2022/04/04 12:40:16;;;;;;;8.57;6.47;;;18.60;61.10;;;;;;5039789;28;20111;-80
2022/04/04 12:42:43;;;;;;;9.07;5.80;;;18.70;61.00;;;;;;5038950;28;20094;-79
2022/04/04 12:45:11;;;;;;;10.65;6.57;;;18.80;61.00;;;;;;5045343;28;20021;-80
2022/04/04 12:47:59;;;;;;;9.65;6.13;;;18.90;60.90;;;;;;5044043;28;20029;-80
2022/04/04 12:50:37;;;;;;;9.18;6.55;;;19.00;60.80;;;;;;5041758;28;20025;-80
2022/04/04 12:53:04;;;;;;;11.13;4.72;;;19.00;60.70;;;;;;5044748;28;20028;-79
2022/04/04 12:55:30;;;;;;;7.75;5.18;;;19.10;60.70;;;;;;5043068;28;20052;-80
2022/04/04 12:58:23;;;;;;;10.63;5.28;;;19.10;60.70;;;;;;5043604;28;20122;-80
2022/04/04 13:00:51;;;;;;;9.05;5.07;;;19.20;60.60;;;;;;5047996;28;20025;-80
2022/04/04 13:03:22;;;;;;;7.03;4.20;;;19.40;60.70;;;;;;5049209;28;20040;-80
2022/04/04 13:05:50;;;;;;;6.45;4.35;;;19.70;60.80;;;;;;5043538;28;20068;-80